createdAt,value
2022-10-20T00:01:17.137Z,7.10
2022-10-20T00:03:45.165Z,7.10
2022-10-20T00:06:21.423Z,7.10
2022-10-20T00:08:49.399Z,7.10
2022-10-20T00:11:19.154Z,7.10
2022-10-20T00:13:49.754Z,7.10
2022-10-20T00:16:18.031Z,7.00
2022-10-20T00:18:46.137Z,7.00
2022-10-20T00:21:16.762Z,7.00
2022-10-20T00:23:44.624Z,6.90
2022-10-20T00:26:15.581Z,6.90
2022-10-20T00:28:44.399Z,6.90
2022-10-20T00:31:12.518Z,6.80
2022-10-20T00:33:42.625Z,6.80
2022-10-20T00:36:13.666Z,6.80
2022-10-20T00:38:41.779Z,6.80
2022-10-20T00:41:10.576Z,6.80
2022-10-20T00:43:58.899Z,6.70
2022-10-20T00:46:41.509Z,6.80
2022-10-20T00:49:22.163Z,6.80
2022-10-20T00:51:50.858Z,6.80
2022-10-20T00:54:22.071Z,6.80
2022-10-20T00:56:50.487Z,6.80
2022-10-20T00:59:21.738Z,6.80
2022-10-20T01:01:50.234Z,6.80
2022-10-20T01:04:18.855Z,6.80
2022-10-20T01:06:46.182Z,6.80
2022-10-20T01:09:13.764Z,6.80
2022-10-20T01:11:44.129Z,6.80
2022-10-20T01:14:30.183Z,6.80
2022-10-20T01:17:17.529Z,6.80
2022-10-20T01:20:03.208Z,6.80
2022-10-20T01:22:30.422Z,6.80
2022-10-20T01:25:03.755Z,6.70
2022-10-20T01:27:40.964Z,6.70
2022-10-20T01:30:23.888Z,6.70
2022-10-20T01:33:30.551Z,6.70
2022-10-20T01:36:12.979Z,6.70
2022-10-20T01:38:53.287Z,6.60
2022-10-20T01:41:41.953Z,6.60
2022-10-20T01:44:15.059Z,6.60
2022-10-20T01:46:45.062Z,6.60
2022-10-20T01:49:14.836Z,6.60
2022-10-20T01:54:28.860Z,6.60
2022-10-20T01:57:20.463Z,6.60
2022-10-20T02:00:11.416Z,6.60
2022-10-20T02:03:07.416Z,6.60
2022-10-20T02:06:11.437Z,6.60
2022-10-20T02:08:52.905Z,6.60
2022-10-20T02:11:37.983Z,6.60
2022-10-20T02:14:07.921Z,6.70
2022-10-20T02:16:39.137Z,6.70
2022-10-20T02:19:09.692Z,6.70
2022-10-20T02:21:38.022Z,6.70
2022-10-20T02:24:08.992Z,6.60
2022-10-20T02:26:39.219Z,6.70
2022-10-20T02:29:14.883Z,6.60
2022-10-20T02:31:44.606Z,6.60
2022-10-20T02:34:13.063Z,6.60
2022-10-20T02:36:43.140Z,6.60
2022-10-20T02:39:11.226Z,6.60
2022-10-20T02:41:38.954Z,6.60
2022-10-20T02:44:06.237Z,6.50
2022-10-20T02:46:33.611Z,6.60
2022-10-20T02:49:00.885Z,6.60
2022-10-20T02:51:28.419Z,6.50
2022-10-20T02:53:55.531Z,6.60
2022-10-20T02:56:25.406Z,6.60
2022-10-20T02:58:54.929Z,6.60
2022-10-20T03:01:23.350Z,6.60
2022-10-20T03:03:50.785Z,6.60
2022-10-20T03:06:18.174Z,6.60
2022-10-20T03:08:45.524Z,6.60
2022-10-20T03:11:14.950Z,6.60
2022-10-20T03:13:42.249Z,6.60
2022-10-20T03:16:09.585Z,6.60
2022-10-20T03:18:36.773Z,6.60
2022-10-20T03:21:03.969Z,6.60
2022-10-20T03:23:31.621Z,6.60
2022-10-20T03:26:07.360Z,6.60
2022-10-20T03:28:35.107Z,6.60
2022-10-20T03:31:02.317Z,6.50
2022-10-20T03:33:29.570Z,6.60
2022-10-20T03:35:57.132Z,6.50
2022-10-20T03:38:24.441Z,6.50
2022-10-20T03:40:51.871Z,6.50
2022-10-20T03:43:19.497Z,6.50
2022-10-20T03:45:46.469Z,6.50
2022-10-20T03:48:13.784Z,6.50
2022-10-20T03:50:42.650Z,6.50
2022-10-20T03:53:16.335Z,6.50
2022-10-20T03:55:43.430Z,6.50
2022-10-20T03:58:10.706Z,6.50
2022-10-20T04:00:38.313Z,6.50
2022-10-20T04:03:05.555Z,6.40
2022-10-20T04:05:32.825Z,6.40
2022-10-20T04:08:00.277Z,6.40
2022-10-20T04:10:27.608Z,6.40
2022-10-20T04:12:58.733Z,6.40
2022-10-20T04:15:26.426Z,6.40
2022-10-20T04:17:53.583Z,6.40
2022-10-20T04:20:21.031Z,6.30
2022-10-20T04:22:48.489Z,6.30
2022-10-20T04:25:16.019Z,6.30
2022-10-20T04:27:44.256Z,6.20
2022-10-20T04:30:11.838Z,6.20
2022-10-20T04:32:39.233Z,6.20
2022-10-20T04:35:06.892Z,6.20
2022-10-20T04:37:34.436Z,6.10
2022-10-20T04:40:02.560Z,6.10
2022-10-20T04:42:29.650Z,6.10
2022-10-20T04:47:25.020Z,6.10
2022-10-20T04:49:52.396Z,6.10
2022-10-20T04:52:20.973Z,6.10
2022-10-20T04:54:48.248Z,6.10
2022-10-20T04:57:15.591Z,6.10
2022-10-20T04:59:42.783Z,6.20
2022-10-20T05:02:11.734Z,6.10
2022-10-20T05:04:39.290Z,6.10
2022-10-20T05:07:06.860Z,6.10
2022-10-20T05:09:34.298Z,6.10
2022-10-20T05:12:01.512Z,6.10
2022-10-20T05:14:29.009Z,6.10
2022-10-20T05:16:56.377Z,6.10
2022-10-20T05:19:23.786Z,6.10
2022-10-20T05:21:50.984Z,6.10
2022-10-20T05:24:21.332Z,6.10
2022-10-20T05:26:49.974Z,6.10
2022-10-20T05:29:17.206Z,6.00
2022-10-20T05:31:44.725Z,6.00
2022-10-20T05:34:12.636Z,6.00
2022-10-20T05:36:39.994Z,6.00
2022-10-20T05:39:07.342Z,6.00
2022-10-20T05:41:38.073Z,6.00
2022-10-20T05:44:09.191Z,6.00
2022-10-20T05:46:41.570Z,6.00
2022-10-20T05:49:14.564Z,5.90
2022-10-20T05:51:42.187Z,5.90
2022-10-20T05:54:12.205Z,5.90
2022-10-20T05:56:39.663Z,5.90
2022-10-20T05:59:06.948Z,5.90
2022-10-20T06:01:48.383Z,5.90
2022-10-20T06:04:25.240Z,5.90
2022-10-20T06:06:52.971Z,5.90
2022-10-20T06:09:21.525Z,5.80
2022-10-20T06:11:49.357Z,5.80
2022-10-20T06:14:17.757Z,5.90
2022-10-20T06:16:46.188Z,5.90
2022-10-20T06:19:13.888Z,5.90
2022-10-20T06:24:13.534Z,5.90
2022-10-20T06:26:41.352Z,5.90
2022-10-20T06:29:11.844Z,5.90
2022-10-20T06:31:41.513Z,5.90
2022-10-20T06:34:12.907Z,5.90
2022-10-20T06:36:42.571Z,6.00
2022-10-20T06:39:13.696Z,6.00
2022-10-20T06:41:41.108Z,6.00
2022-10-20T06:44:08.621Z,6.00
2022-10-20T06:46:37.151Z,6.10
2022-10-20T06:49:07.024Z,6.10
2022-10-20T06:51:35.878Z,6.20
2022-10-20T06:54:03.515Z,6.10
2022-10-20T06:56:32.904Z,6.20
2022-10-20T06:59:01.436Z,6.30
2022-10-20T07:01:34.618Z,6.30
2022-10-20T07:04:07.890Z,6.30
2022-10-20T07:06:38.050Z,6.40
2022-10-20T07:09:08.663Z,6.40
2022-10-20T07:11:36.462Z,6.40
2022-10-20T07:14:04.591Z,6.50
2022-10-20T07:16:33.953Z,6.50
2022-10-20T07:19:02.477Z,6.60
2022-10-20T07:21:35.646Z,6.60
2022-10-20T07:24:06.518Z,6.70
2022-10-20T07:26:39.091Z,6.70
2022-10-20T07:29:06.914Z,6.70
2022-10-20T07:31:40.492Z,6.80
2022-10-20T07:34:27.173Z,6.90
2022-10-20T07:36:56.850Z,6.90
2022-10-20T07:39:25.116Z,6.90
2022-10-20T07:41:52.927Z,7.00
2022-10-20T07:44:20.767Z,7.00
2022-10-20T07:46:48.138Z,7.10
2022-10-20T07:52:02.784Z,7.20
2022-10-20T07:54:30.057Z,7.20
2022-10-20T07:56:57.440Z,7.30
2022-10-20T07:59:24.874Z,7.40
2022-10-20T08:01:55.986Z,7.40
2022-10-20T08:04:24.495Z,7.50
2022-10-20T08:06:51.652Z,7.50
2022-10-20T08:09:18.869Z,7.60
2022-10-20T08:11:46.169Z,7.70
2022-10-20T08:14:13.446Z,7.70
2022-10-20T08:16:41.981Z,7.80
2022-10-20T08:19:09.425Z,7.90
2022-10-20T08:21:36.673Z,8.00
2022-10-20T08:24:04.296Z,8.00
2022-10-20T08:26:31.390Z,8.10
2022-10-20T08:28:58.691Z,8.20
2022-10-20T08:31:26.020Z,8.20
2022-10-20T08:33:53.389Z,8.30
2022-10-20T08:36:21.661Z,8.40
2022-10-20T08:38:49.281Z,8.50
2022-10-20T08:41:22.591Z,8.50
2022-10-20T08:43:52.506Z,8.60
2022-10-20T08:46:23.276Z,8.70
2022-10-20T08:48:51.421Z,8.70
2022-10-20T08:51:24.580Z,8.80
2022-10-20T08:53:57.454Z,8.80
2022-10-20T08:56:28.566Z,8.90
2022-10-20T08:58:56.560Z,9.00
2022-10-20T09:01:31.175Z,9.10
2022-10-20T09:04:19.936Z,9.10
2022-10-20T09:06:53.895Z,9.20
2022-10-20T09:09:22.773Z,9.30
2022-10-20T09:11:50.576Z,9.40
2022-10-20T09:14:17.893Z,9.40
2022-10-20T09:17:02.354Z,9.40
2022-10-20T09:19:30.354Z,9.50
2022-10-20T09:22:05.743Z,9.60
2022-10-20T09:24:35.275Z,9.60
2022-10-20T09:27:36.234Z,9.70
2022-10-20T09:30:34.848Z,9.80
2022-10-20T09:33:27.390Z,9.80
2022-10-20T09:35:56.003Z,9.90
2022-10-20T09:38:32.537Z,9.90
2022-10-20T09:41:10.641Z,10.00
2022-10-20T09:43:48.050Z,10.10
2022-10-20T09:46:21.306Z,10.10
2022-10-20T09:48:50.704Z,10.30
2022-10-20T09:51:23.316Z,10.40
2022-10-20T09:54:03.699Z,10.40
2022-10-20T09:56:37.521Z,10.50
2022-10-20T09:59:25.616Z,10.60
2022-10-20T10:01:56.682Z,10.70
2022-10-20T10:04:32.856Z,10.70
2022-10-20T10:07:00.328Z,10.80
2022-10-20T10:09:36.929Z,10.90
2022-10-20T10:12:13.109Z,11.00
2022-10-20T10:14:53.445Z,11.00
2022-10-20T10:17:38.988Z,11.10
2022-10-20T10:20:16.662Z,11.10
2022-10-20T10:22:44.588Z,11.30
2022-10-20T10:25:20.393Z,11.30
2022-10-20T10:28:07.244Z,11.40
2022-10-20T10:30:37.413Z,11.40
2022-10-20T10:33:26.713Z,11.50
2022-10-20T10:35:53.957Z,11.50
2022-10-20T10:38:21.700Z,11.60
2022-10-20T10:41:19.194Z,11.70
2022-10-20T10:44:00.613Z,11.70
2022-10-20T10:46:37.274Z,11.80
2022-10-20T10:49:15.017Z,11.80
2022-10-20T10:52:14.548Z,11.90
2022-10-20T10:55:06.372Z,11.90
2022-10-20T10:58:03.849Z,11.90
2022-10-20T11:00:47.575Z,11.90
2022-10-20T11:03:37.646Z,12.00
2022-10-20T11:06:28.871Z,12.10
2022-10-20T11:09:24.746Z,12.10
2022-10-20T11:12:07.198Z,12.10
2022-10-20T11:15:04.896Z,12.10
2022-10-20T11:17:56.835Z,12.10
2022-10-20T11:20:36.358Z,12.20
2022-10-20T11:23:18.866Z,12.20
2022-10-20T11:26:26.803Z,12.20
2022-10-20T11:28:58.518Z,12.30
2022-10-20T11:31:31.860Z,12.30
2022-10-20T11:34:10.875Z,12.30
2022-10-20T11:36:50.318Z,12.30
2022-10-20T11:39:36.902Z,12.30
2022-10-20T11:42:46.246Z,12.20
2022-10-20T11:45:45.372Z,12.30
2022-10-20T11:48:30.479Z,12.30
2022-10-20T11:51:18.068Z,12.30
2022-10-20T11:54:00.326Z,12.30
2022-10-20T11:56:46.049Z,12.40
2022-10-20T11:59:31.657Z,12.40
2022-10-20T12:02:04.884Z,12.50
2022-10-20T12:04:32.018Z,12.50
2022-10-20T12:07:27.936Z,12.60
2022-10-20T12:10:22.126Z,12.60
2022-10-20T12:13:11.987Z,12.70
2022-10-20T12:15:47.521Z,12.70
2022-10-20T12:18:28.037Z,12.80
2022-10-20T12:21:35.397Z,12.80
2022-10-20T12:24:03.553Z,12.90
2022-10-20T12:26:31.293Z,12.90
2022-10-20T12:28:59.238Z,12.90
2022-10-20T12:32:04.888Z,12.90
2022-10-20T12:34:41.174Z,13.00
2022-10-20T12:37:15.514Z,13.00
2022-10-20T12:39:43.853Z,13.00
2022-10-20T12:42:28.641Z,13.00
2022-10-20T12:45:28.115Z,13.00
2022-10-20T12:48:00.981Z,13.00
2022-10-20T12:50:47.080Z,13.00
2022-10-20T12:53:24.942Z,13.00
2022-10-20T12:56:04.385Z,13.10
2022-10-20T12:58:37.109Z,13.10
2022-10-20T13:01:10.515Z,13.10
2022-10-20T13:03:47.238Z,13.20
2022-10-20T13:06:23.292Z,13.20
2022-10-20T13:09:21.681Z,13.20
2022-10-20T13:11:58.030Z,13.20
2022-10-20T13:14:44.841Z,13.20
2022-10-20T13:17:50.068Z,13.30
2022-10-20T13:20:24.619Z,13.30
2022-10-20T13:22:56.156Z,13.40
2022-10-20T13:25:47.094Z,13.50
2022-10-20T13:28:14.569Z,13.50
2022-10-20T13:31:22.208Z,13.60
2022-10-20T13:34:05.618Z,13.70
2022-10-20T13:36:57.655Z,13.80
2022-10-20T13:39:31.034Z,13.90
2022-10-20T13:42:13.388Z,14.00
2022-10-20T13:45:08.180Z,14.00
2022-10-20T13:48:07.442Z,14.20
2022-10-20T13:50:40.898Z,14.40
2022-10-20T13:53:23.307Z,14.50
2022-10-20T13:56:07.182Z,14.80
2022-10-20T13:58:34.979Z,14.80
2022-10-20T14:01:06.770Z,14.80
2022-10-20T14:03:43.122Z,14.90
2022-10-20T14:06:29.838Z,14.90
2022-10-20T14:08:58.500Z,14.80
2022-10-20T14:11:29.645Z,14.70
2022-10-20T14:13:59.658Z,14.60
2022-10-20T14:16:29.765Z,14.50
2022-10-20T14:19:03.654Z,14.40
2022-10-20T14:21:39.334Z,14.30
2022-10-20T14:24:10.378Z,14.20
2022-10-20T14:26:38.164Z,14.20
2022-10-20T14:29:05.603Z,14.10
2022-10-20T14:31:32.790Z,14.00
2022-10-20T14:34:00.288Z,14.00
2022-10-20T14:36:29.525Z,13.90
2022-10-20T14:39:02.006Z,13.90
2022-10-20T14:41:33.354Z,13.80
2022-10-20T14:44:15.499Z,13.80
2022-10-20T14:46:48.388Z,13.70
2022-10-20T14:49:19.049Z,13.70
2022-10-20T14:52:01.532Z,13.60
2022-10-20T14:54:39.811Z,13.60
2022-10-20T14:57:09.939Z,13.50
2022-10-20T15:00:04.998Z,13.50
2022-10-20T15:02:42.180Z,13.40
2022-10-20T15:05:27.416Z,13.40
2022-10-20T15:07:54.958Z,13.40
2022-10-20T15:10:27.080Z,13.30
2022-10-20T15:12:58.595Z,13.20
2022-10-20T15:15:37.070Z,13.20
2022-10-20T15:18:07.344Z,13.20
2022-10-20T15:20:39.129Z,13.10
2022-10-20T15:23:32.800Z,13.00
2022-10-20T15:26:06.610Z,13.00
2022-10-20T15:28:52.203Z,13.00
2022-10-20T15:31:30.334Z,12.90
2022-10-20T15:33:58.709Z,12.90
2022-10-20T15:36:33.287Z,12.80
2022-10-20T15:39:02.575Z,12.80
2022-10-20T15:41:31.974Z,12.70
2022-10-20T15:44:22.547Z,12.70
2022-10-20T15:46:55.184Z,12.60
2022-10-20T15:49:23.072Z,12.60
2022-10-20T15:51:51.176Z,12.50
2022-10-20T15:54:21.482Z,12.50
2022-10-20T15:56:49.388Z,12.50
2022-10-20T15:59:18.621Z,12.40
2022-10-20T16:01:45.832Z,12.40
2022-10-20T16:04:26.648Z,12.30
2022-10-20T16:06:59.162Z,12.30
2022-10-20T16:09:28.057Z,12.20
2022-10-20T16:11:55.407Z,12.20
2022-10-20T16:14:22.413Z,12.20
2022-10-20T16:16:50.027Z,12.10
2022-10-20T16:19:17.185Z,12.10
2022-10-20T16:21:44.485Z,12.10
2022-10-20T16:24:11.872Z,12.10
2022-10-20T16:26:39.268Z,12.00
2022-10-20T16:29:06.568Z,12.00
2022-10-20T16:31:33.672Z,11.90
2022-10-20T16:34:06.762Z,11.90
2022-10-20T16:36:35.136Z,11.90
2022-10-20T16:39:02.748Z,11.90
2022-10-20T16:41:29.732Z,11.80
2022-10-20T16:44:00.849Z,11.80
2022-10-20T16:46:28.618Z,11.80
2022-10-20T16:48:57.591Z,11.80
2022-10-20T16:51:24.981Z,11.80
2022-10-20T16:53:54.114Z,11.80
2022-10-20T16:56:21.879Z,11.80
2022-10-20T16:58:49.524Z,11.80
2022-10-20T17:01:19.089Z,11.80
2022-10-20T17:03:49.184Z,11.80
2022-10-20T17:06:19.205Z,11.80
2022-10-20T17:08:47.219Z,11.80
2022-10-20T17:11:17.096Z,11.80
2022-10-20T17:13:44.653Z,11.70
2022-10-20T17:16:16.972Z,11.70
2022-10-20T17:18:44.415Z,11.70
2022-10-20T17:21:13.516Z,11.70
2022-10-20T17:23:43.439Z,11.60
2022-10-20T17:26:17.762Z,11.60
2022-10-20T17:28:45.421Z,11.60
2022-10-20T17:31:14.464Z,11.60
2022-10-20T17:33:42.324Z,11.60
2022-10-20T17:36:11.774Z,11.60
2022-10-20T17:38:41.928Z,11.60
2022-10-20T17:41:11.342Z,11.60
2022-10-20T17:43:38.569Z,11.60
2022-10-20T17:46:09.124Z,11.60
2022-10-20T17:48:38.179Z,11.60
2022-10-20T17:51:10.808Z,11.60
2022-10-20T17:53:40.494Z,11.60
2022-10-20T17:56:11.322Z,11.60
2022-10-20T17:58:38.665Z,11.60
2022-10-20T18:01:19.075Z,11.60
2022-10-20T18:03:48.140Z,11.60
2022-10-20T18:06:18.180Z,11.60
2022-10-20T18:08:46.006Z,11.60
2022-10-20T18:11:16.382Z,11.60
2022-10-20T18:13:44.575Z,11.60
2022-10-20T18:16:17.591Z,11.70
2022-10-20T18:18:45.273Z,11.70
2022-10-20T18:21:14.575Z,11.70
2022-10-20T18:23:44.221Z,11.70
2022-10-20T18:26:14.034Z,11.70
2022-10-20T18:28:45.729Z,11.70
2022-10-20T18:31:19.912Z,11.70
2022-10-20T18:33:48.550Z,11.70
2022-10-20T18:36:18.198Z,11.70
2022-10-20T18:38:47.140Z,11.70
2022-10-20T18:41:26.429Z,11.70
2022-10-20T18:43:58.002Z,11.70
2022-10-20T18:46:27.089Z,11.70
2022-10-20T18:48:55.107Z,11.70
2022-10-20T18:51:22.996Z,11.70
2022-10-20T18:53:56.676Z,11.70
2022-10-20T18:56:27.966Z,11.70
2022-10-20T18:59:04.078Z,11.70
2022-10-20T19:01:37.154Z,11.70
2022-10-20T19:04:05.821Z,11.70
2022-10-20T19:06:36.834Z,11.70
2022-10-20T19:09:22.589Z,11.70
2022-10-20T19:14:22.854Z,11.70
2022-10-20T19:16:50.675Z,11.70
2022-10-20T19:19:18.324Z,11.70
2022-10-20T19:21:45.590Z,11.70
2022-10-20T19:24:19.003Z,11.70
2022-10-20T19:27:24.973Z,11.70
2022-10-20T19:29:47.397Z,11.70
2022-10-20T19:32:16.157Z,11.70
2022-10-20T19:34:43.377Z,11.70
2022-10-20T19:37:11.024Z,11.70
2022-10-20T19:39:41.389Z,11.70
2022-10-20T19:42:10.169Z,11.70
2022-10-20T19:44:37.423Z,11.70
2022-10-20T19:47:05.731Z,11.70
2022-10-20T19:49:33.195Z,11.70
2022-10-20T19:52:00.548Z,11.70
2022-10-20T19:54:28.016Z,11.70
2022-10-20T19:56:55.075Z,11.70
2022-10-20T19:59:22.848Z,11.70
2022-10-20T20:01:50.525Z,11.70
2022-10-20T20:04:19.023Z,11.70
2022-10-20T20:06:46.259Z,11.70
2022-10-20T20:09:15.896Z,11.70
2022-10-20T20:11:43.511Z,11.70
2022-10-20T20:14:18.972Z,11.60
2022-10-20T20:16:47.503Z,11.60
2022-10-20T20:19:16.817Z,11.60
2022-10-20T20:21:44.422Z,11.60
2022-10-20T20:24:12.853Z,11.60
2022-10-20T20:26:40.225Z,11.60
2022-10-20T20:29:07.533Z,11.50
2022-10-20T20:31:35.307Z,11.50
2022-10-20T20:34:02.804Z,11.50
2022-10-20T20:36:30.777Z,11.50
2022-10-20T20:38:59.791Z,11.50
2022-10-20T20:41:30.436Z,11.50
2022-10-20T20:43:58.162Z,11.50
2022-10-20T20:46:29.378Z,11.50
2022-10-20T20:48:58.045Z,11.50
2022-10-20T20:51:29.123Z,11.40
2022-10-20T20:53:56.581Z,11.40
2022-10-20T20:56:26.811Z,11.40
2022-10-20T20:58:55.543Z,11.40
2022-10-20T21:01:28.904Z,11.40
2022-10-20T21:03:58.277Z,11.40
2022-10-20T21:06:33.644Z,11.40
2022-10-20T21:09:01.689Z,11.40
2022-10-20T21:11:30.289Z,11.30
2022-10-20T21:13:59.332Z,11.30
2022-10-20T21:16:35.124Z,11.30
2022-10-20T21:19:05.252Z,11.30
2022-10-20T21:21:35.492Z,11.30
2022-10-20T21:24:04.662Z,11.30
2022-10-20T21:26:32.698Z,11.20
2022-10-20T21:29:00.032Z,11.20
2022-10-20T21:31:29.124Z,11.20
2022-10-20T21:34:02.216Z,11.10
2022-10-20T21:36:31.803Z,11.20
2022-10-20T21:38:59.975Z,11.10
2022-10-20T21:41:29.656Z,11.20
2022-10-20T21:43:59.147Z,11.10
2022-10-20T21:46:27.550Z,11.10
2022-10-20T21:48:58.992Z,11.10
2022-10-20T21:51:32.644Z,11.10
2022-10-20T21:54:02.722Z,11.10
2022-10-20T21:56:33.328Z,11.10
2022-10-20T21:59:00.826Z,11.10
2022-10-20T22:01:28.159Z,11.10
2022-10-20T22:03:56.047Z,11.10
2022-10-20T22:06:25.723Z,11.10
2022-10-20T22:08:55.748Z,11.10
2022-10-20T22:11:38.894Z,11.00
2022-10-20T22:14:07.095Z,11.00
2022-10-20T22:16:39.791Z,11.00
2022-10-20T22:19:17.597Z,11.00
2022-10-20T22:21:47.149Z,11.00
2022-10-20T22:24:15.626Z,10.90
2022-10-20T22:26:43.343Z,10.90
2022-10-20T22:29:11.636Z,10.90
2022-10-20T22:31:40.473Z,10.90
2022-10-20T22:34:08.410Z,10.90
2022-10-20T22:36:35.918Z,10.90
2022-10-20T22:39:04.661Z,10.90
2022-10-20T22:41:32.277Z,10.90
2022-10-20T22:43:59.719Z,10.90
2022-10-20T22:46:27.288Z,10.80
2022-10-20T22:48:54.880Z,10.80
2022-10-20T22:51:22.352Z,10.80
2022-10-20T22:53:50.031Z,10.80
2022-10-20T22:56:20.708Z,10.80
2022-10-20T22:58:48.724Z,10.80
2022-10-20T23:01:21.847Z,10.70
2022-10-20T23:03:49.389Z,10.70
2022-10-20T23:06:20.572Z,10.70
2022-10-20T23:08:50.019Z,10.70
2022-10-20T23:11:18.212Z,10.70
2022-10-20T23:13:47.334Z,10.70
2022-10-20T23:16:17.909Z,10.70
2022-10-20T23:18:45.288Z,10.70
2022-10-20T23:21:14.036Z,10.70
2022-10-20T23:23:41.443Z,10.70
2022-10-20T23:26:09.743Z,10.70
2022-10-20T23:28:37.920Z,10.70
2022-10-20T23:31:16.472Z,10.70
2022-10-20T23:33:45.531Z,10.70
2022-10-20T23:36:14.137Z,10.70
2022-10-20T23:38:41.890Z,10.70
2022-10-20T23:41:10.172Z,10.70
2022-10-20T23:43:37.500Z,10.70
2022-10-20T23:46:05.268Z,10.70
2022-10-20T23:48:32.981Z,10.70
2022-10-20T23:51:00.516Z,10.60
2022-10-20T23:53:27.688Z,10.60
2022-10-20T23:55:54.962Z,10.70
2022-10-20T23:58:23.355Z,10.70
